sensor_id;sensor_type;location;lat;lon;timestamp;pressure;altitude;pressure_sealevel;temperature;humidity
55010;BME280;40903;51.638;7.528;2023-12-04T00:00:04;100967.16;;;0.97;100.00
55010;BME280;40903;51.638;7.528;2023-12-04T00:02:30;100959.09;;;0.97;100.00
55010;BME280;40903;51.638;7.528;2023-12-04T00:04:56;100945.69;;;0.97;100.00
55010;BME280;40903;51.638;7.528;2023-12-04T00:07:21;100956.41;;;0.97;100.00
55010;BME280;40903;51.638;7.528;2023-12-04T00:09:47;100945.47;;;0.99;100.00
55010;BME280;40903;51.638;7.528;2023-12-04T00:12:12;100937.22;;;1.00;100.00
55010;BME280;40903;51.638;7.528;2023-12-04T00:14:38;100942.00;;;0.98;100.00
55010;BME280;40903;51.638;7.528;2023-12-04T00:17:04;100943.63;;;0.99;100.00
55010;BME280;40903;51.638;7.528;2023-12-04T00:19:29;100934.28;;;1.02;100.00
55010;BME280;40903;51.638;7.528;2023-12-04T00:21:55;100936.53;;;1.05;100.00
55010;BME280;40903;51.638;7.528;2023-12-04T00:24:20;100937.34;;;1.05;100.00
55010;BME280;40903;51.638;7.528;2023-12-04T00:26:46;100936.31;;;1.06;100.00
55010;BME280;40903;51.638;7.528;2023-12-04T00:29:11;100929.88;;;1.07;100.00
55010;BME280;40903;51.638;7.528;2023-12-04T00:31:37;100926.16;;;1.08;100.00
55010;BME280;40903;51.638;7.528;2023-12-04T00:34:02;100919.41;;;1.06;100.00
55010;BME280;40903;51.638;7.528;2023-12-04T00:36:28;100919.59;;;1.04;100.00
55010;BME280;40903;51.638;7.528;2023-12-04T00:38:53;100911.34;;;1.06;100.00
55010;BME280;40903;51.638;7.528;2023-12-04T00:41:19;100920.06;;;1.01;100.00
55010;BME280;40903;51.638;7.528;2023-12-04T00:43:44;100913.66;;;1.02;100.00
55010;BME280;40903;51.638;7.528;2023-12-04T00:46:10;100921.69;;;1.02;100.00
55010;BME280;40903;51.638;7.528;2023-12-04T00:48:36;100917.97;;;1.03;100.00
55010;BME280;40903;51.638;7.528;2023-12-04T00:51:01;100919.59;;;1.04;100.00
55010;BME280;40903;51.638;7.528;2023-12-04T00:53:27;100901.41;;;1.06;100.00
55010;BME280;40903;51.638;7.528;2023-12-04T00:55:52;100903.03;;;1.07;100.00
55010;BME280;40903;51.638;7.528;2023-12-04T00:58:18;100901.19;;;1.08;100.00
55010;BME280;40903;51.638;7.528;2023-12-04T01:00:44;100900.34;;;1.07;100.00
55010;BME280;40903;51.638;7.528;2023-12-04T01:03:09;100892.56;;;1.06;100.00
55010;BME280;40903;51.638;7.528;2023-12-04T01:05:35;100897.09;;;1.05;100.00
55010;BME280;40903;51.638;7.528;2023-12-04T01:08:00;100901.88;;;1.03;100.00
55010;BME280;40903;51.638;7.528;2023-12-04T01:10:26;100894.84;;;1.02;100.00
55010;BME280;40903;51.638;7.528;2023-12-04T01:12:52;100883.53;;;1.00;100.00
55010;BME280;40903;51.638;7.528;2023-12-04T01:15:17;100883.28;;;1.02;100.00
55010;BME280;40903;51.638;7.528;2023-12-04T01:17:43;100874.03;;;0.98;100.00
55010;BME280;40903;51.638;7.528;2023-12-04T01:20:08;100869.25;;;1.00;100.00
55010;BME280;40903;51.638;7.528;2023-12-04T01:22:34;100874.63;;;1.00;100.00
55010;BME280;40903;51.638;7.528;2023-12-04T01:25:00;100870.09;;;1.00;100.00
55010;BME280;40903;51.638;7.528;2023-12-04T01:27:25;100866.38;;;1.01;100.00
55010;BME280;40903;51.638;7.528;2023-12-04T01:29:51;100869.41;;;1.05;100.00
55010;BME280;40903;51.638;7.528;2023-12-04T01:32:17;100867.34;;;1.07;100.00
55010;BME280;40903;51.638;7.528;2023-12-04T01:34:42;100862.78;;;1.07;100.00
55010;BME280;40903;51.638;7.528;2023-12-04T01:37:08;100853.91;;;1.07;100.00
55010;BME280;40903;51.638;7.528;2023-12-04T01:39:34;100854.72;;;1.07;100.00
55010;BME280;40903;51.638;7.528;2023-12-04T01:41:59;100856.34;;;1.08;100.00
55010;BME280;40903;51.638;7.528;2023-12-04T01:44:25;100853.91;;;1.07;100.00
55010;BME280;40903;51.638;7.528;2023-12-04T01:46:51;100852.88;;;1.08;100.00
55010;BME280;40903;51.638;7.528;2023-12-04T01:49:17;100843.19;;;1.07;100.00
55010;BME280;40903;51.638;7.528;2023-12-04T01:51:43;100840.50;;;1.07;100.00
55010;BME280;40903;51.638;7.528;2023-12-04T01:54:09;100831.81;;;1.05;100.00
55010;BME280;40903;51.638;7.528;2023-12-04T01:56:36;100831.00;;;1.04;100.00
55010;BME280;40903;51.638;7.528;2023-12-04T01:59:03;100825.06;;;1.02;100.00
55010;BME280;40903;51.638;7.528;2023-12-04T02:01:29;100822.59;;;1.01;100.00
55010;BME280;40903;51.638;7.528;2023-12-04T02:03:56;100813.94;;;0.99;100.00
55010;BME280;40903;51.638;7.528;2023-12-04T02:06:22;100822.44;;;0.96;100.00
55010;BME280;40903;51.638;7.528;2023-12-04T02:08:48;100818.13;;;0.95;100.00
55010;BME280;40903;51.638;7.528;2023-12-04T02:11:14;100814.59;;;0.94;100.00
55010;BME280;40903;51.638;7.528;2023-12-04T02:13:40;100805.97;;;0.92;100.00
55010;BME280;40903;51.638;7.528;2023-12-04T02:16:09;100809.91;;;0.90;100.00
55010;BME280;40903;51.638;7.528;2023-12-04T02:18:35;100807.69;;;0.87;100.00
55010;BME280;40903;51.638;7.528;2023-12-04T02:21:01;100806.03;;;0.86;100.00
55010;BME280;40903;51.638;7.528;2023-12-04T02:23:27;100802.97;;;0.82;100.00
55010;BME280;40903;51.638;7.528;2023-12-04T02:26:03;100809.41;;;0.81;100.00
55010;BME280;40903;51.638;7.528;2023-12-04T02:28:33;100811.28;;;0.81;100.00
55010;BME280;40903;51.638;7.528;2023-12-04T02:30:59;100810.69;;;0.79;100.00
55010;BME280;40903;51.638;7.528;2023-12-04T02:33:27;100811.16;;;0.76;100.00
55010;BME280;40903;51.638;7.528;2023-12-04T02:35:55;100814.63;;;0.76;100.00
55010;BME280;40903;51.638;7.528;2023-12-04T02:38:23;100805.53;;;0.77;100.00
55010;BME280;40903;51.638;7.528;2023-12-04T02:40:49;100800.41;;;0.76;100.00
55010;BME280;40903;51.638;7.528;2023-12-04T02:43:15;100798.53;;;0.76;100.00
55010;BME280;40903;51.638;7.528;2023-12-04T02:45:40;100796.69;;;0.77;100.00
55010;BME280;40903;51.638;7.528;2023-12-04T02:48:06;100787.59;;;0.78;100.00
55010;BME280;40903;51.638;7.528;2023-12-04T02:50:32;100778.69;;;0.77;100.00
55010;BME280;40903;51.638;7.528;2023-12-04T02:52:58;100784.66;;;0.79;100.00
55010;BME280;40903;51.638;7.528;2023-12-04T02:55:23;100778.25;;;0.80;100.00
55010;BME280;40903;51.638;7.528;2023-12-04T02:57:49;100778.03;;;0.82;100.00
55010;BME280;40903;51.638;7.528;2023-12-04T03:00:15;100765.41;;;0.82;100.00
55010;BME280;40903;51.638;7.528;2023-12-04T03:02:41;100766.03;;;0.84;100.00
55010;BME280;40903;51.638;7.528;2023-12-04T03:05:06;100770.34;;;0.85;100.00
55010;BME280;40903;51.638;7.528;2023-12-04T03:07:32;100763.09;;;0.86;100.00
55010;BME280;40903;51.638;7.528;2023-12-04T03:09:57;100761.25;;;0.86;100.00
55010;BME280;40903;51.638;7.528;2023-12-04T03:12:23;100756.69;;;0.87;100.00
55010;BME280;40903;51.638;7.528;2023-12-04T03:14:48;100753.41;;;0.85;100.00
55010;BME280;40903;51.638;7.528;2023-12-04T03:17:14;100748.41;;;0.88;100.00
55010;BME280;40903;51.638;7.528;2023-12-04T03:19:40;100745.28;;;0.91;100.00
55010;BME280;40903;51.638;7.528;2023-12-04T03:22:06;100745.88;;;0.93;100.00
55010;BME280;40903;51.638;7.528;2023-12-04T03:24:31;100746.13;;;0.92;100.00
55010;BME280;40903;51.638;7.528;2023-12-04T03:26:57;100735.59;;;0.90;100.00
55010;BME280;40903;51.638;7.528;2023-12-04T03:29:22;100734.53;;;0.91;100.00
55010;BME280;40903;51.638;7.528;2023-12-04T03:31:48;100740.75;;;0.92;100.00
55010;BME280;40903;51.638;7.528;2023-12-04T03:34:14;100731.41;;;0.94;100.00
55010;BME280;40903;51.638;7.528;2023-12-04T03:36:39;100728.72;;;0.94;100.00
55010;BME280;40903;51.638;7.528;2023-12-04T03:39:05;100724.19;;;0.95;100.00
55010;BME280;40903;51.638;7.528;2023-12-04T03:41:30;100727.66;;;0.95;100.00
55010;BME280;40903;51.638;7.528;2023-12-04T03:43:56;100714.84;;;0.97;100.00
55010;BME280;40903;51.638;7.528;2023-12-04T03:46:22;100719.19;;;0.98;100.00
55010;BME280;40903;51.638;7.528;2023-12-04T03:48:47;100712.16;;;0.97;100.00
55010;BME280;40903;51.638;7.528;2023-12-04T03:51:13;100702.47;;;0.96;100.00
55010;BME280;40903;51.638;7.528;2023-12-04T03:53:38;100706.19;;;0.95;100.00
55010;BME280;40903;51.638;7.528;2023-12-04T03:56:04;100704.56;;;0.94;100.00
55010;BME280;40903;51.638;7.528;2023-12-04T03:58:30;100698.38;;;0.94;100.00
55010;BME280;40903;51.638;7.528;2023-12-04T04:00:55;100690.09;;;0.95;100.00
55010;BME280;40903;51.638;7.528;2023-12-04T04:03:21;100694.06;;;0.93;100.00
55010;BME280;40903;51.638;7.528;2023-12-04T04:05:47;100687.28;;;0.90;100.00
55010;BME280;40903;51.638;7.528;2023-12-04T04:08:12;100686.00;;;0.93;100.00
55010;BME280;40903;51.638;7.528;2023-12-04T04:10:38;100694.88;;;0.93;100.00
55010;BME280;40903;51.638;7.528;2023-12-04T04:13:03;100687.50;;;0.89;100.00
55010;BME280;40903;51.638;7.528;2023-12-04T04:15:29;100698.84;;;0.91;100.00
55010;BME280;40903;51.638;7.528;2023-12-04T04:17:54;100687.28;;;0.90;100.00
55010;BME280;40903;51.638;7.528;2023-12-04T04:20:20;100684.81;;;0.89;100.00
55010;BME280;40903;51.638;7.528;2023-12-04T04:22:48;100683.09;;;0.94;100.00
55010;BME280;40903;51.638;7.528;2023-12-04T04:25:13;100681.34;;;1.00;100.00
55010;BME280;40903;51.638;7.528;2023-12-04T04:27:39;100681.94;;;1.02;100.00
55010;BME280;40903;51.638;7.528;2023-12-04T04:30:05;100677.16;;;1.04;100.00
55010;BME280;40903;51.638;7.528;2023-12-04T04:32:31;100673.41;;;1.05;100.00
55010;BME280;40903;51.638;7.528;2023-12-04T04:34:57;100669.94;;;1.04;100.00
55010;BME280;40903;51.638;7.528;2023-12-04T04:37:22;100661.41;;;1.07;100.00
55010;BME280;40903;51.638;7.528;2023-12-04T04:39:48;100663.88;;;1.09;100.00
55010;BME280;40903;51.638;7.528;2023-12-04T04:42:14;100666.31;;;1.10;100.00
55010;BME280;40903;51.638;7.528;2023-12-04T04:44:39;100655.34;;;1.12;100.00
55010;BME280;40903;51.638;7.528;2023-12-04T04:47:05;100654.31;;;1.13;100.00
55010;BME280;40903;51.638;7.528;2023-12-04T04:49:31;100656.63;;;1.09;100.00
55010;BME280;40903;51.638;7.528;2023-12-04T04:51:56;100653.47;;;1.12;100.00
55010;BME280;40903;51.638;7.528;2023-12-04T04:54:22;100652.69;;;1.12;100.00
55010;BME280;40903;51.638;7.528;2023-12-04T04:56:47;100654.44;;;1.18;100.00
55010;BME280;40903;51.638;7.528;2023-12-04T04:59:13;100653.84;;;1.16;100.00
55010;BME280;40903;51.638;7.528;2023-12-04T05:01:38;100646.97;;;1.20;100.00
55010;BME280;40903;51.638;7.528;2023-12-04T05:04:04;100659.09;;;1.22;100.00
55010;BME280;40903;51.638;7.528;2023-12-04T05:06:30;100651.53;;;1.19;100.00
55010;BME280;40903;51.638;7.528;2023-12-04T05:08:56;100644.88;;;1.22;100.00
55010;BME280;40903;51.638;7.528;2023-12-04T05:11:21;100651.88;;;1.23;100.00
55010;BME280;40903;51.638;7.528;2023-12-04T05:13:47;100645.22;;;1.25;100.00
55010;BME280;40903;51.638;7.528;2023-12-04T05:16:13;100641.63;;;1.31;99.82
55010;BME280;40903;51.638;7.528;2023-12-04T05:18:39;100641.03;;;1.41;99.62
55010;BME280;40903;51.638;7.528;2023-12-04T05:21:11;100640.78;;;1.42;97.84
55010;BME280;40903;51.638;7.528;2023-12-04T05:23:37;100640.34;;;1.45;96.13
55010;BME280;40903;51.638;7.528;2023-12-04T05:26:04;100634.84;;;1.40;97.62
55010;BME280;40903;51.638;7.528;2023-12-04T05:28:30;100628.88;;;1.38;97.17
55010;BME280;40903;51.638;7.528;2023-12-04T05:30:55;100631.56;;;1.38;95.66
55010;BME280;40903;51.638;7.528;2023-12-04T05:33:21;100617.78;;;1.35;97.49
55010;BME280;40903;51.638;7.528;2023-12-04T05:35:49;100620.47;;;1.35;98.43
55010;BME280;40903;51.638;7.528;2023-12-04T05:38:18;100615.94;;;1.35;98.89
55010;BME280;40903;51.638;7.528;2023-12-04T05:40:43;100619.19;;;1.37;98.81
55010;BME280;40903;51.638;7.528;2023-12-04T05:43:09;100607.66;;;1.37;99.14
55010;BME280;40903;51.638;7.528;2023-12-04T05:45:35;100604.59;;;1.33;98.80
55010;BME280;40903;51.638;7.528;2023-12-04T05:48:00;100600.88;;;1.34;99.74
55010;BME280;40903;51.638;7.528;2023-12-04T05:50:26;100602.97;;;1.32;98.85
55010;BME280;40903;51.638;7.528;2023-12-04T05:52:52;100609.41;;;1.31;99.25
55010;BME280;40903;51.638;7.528;2023-12-04T05:55:17;100605.66;;;1.32;100.00
55010;BME280;40903;51.638;7.528;2023-12-04T05:57:44;100601.09;;;1.33;98.78
55010;BME280;40903;51.638;7.528;2023-12-04T06:00:09;100595.50;;;1.34;99.13
55010;BME280;40903;51.638;7.528;2023-12-04T06:02:42;100594.44;;;1.35;98.12
55010;BME280;40903;51.638;7.528;2023-12-04T06:05:08;100602.97;;;1.32;95.33
55010;BME280;40903;51.638;7.528;2023-12-04T06:07:35;100599.34;;;1.38;94.50
55010;BME280;40903;51.638;7.528;2023-12-04T06:10:01;100599.34;;;1.38;94.69
55010;BME280;40903;51.638;7.528;2023-12-04T06:12:28;100608.22;;;1.39;95.91
55010;BME280;40903;51.638;7.528;2023-12-04T06:14:53;100612.78;;;1.38;95.05
55010;BME280;40903;51.638;7.528;2023-12-04T06:17:19;100620.97;;;1.43;90.82
55010;BME280;40903;51.638;7.528;2023-12-04T06:19:46;100617.56;;;1.48;93.15
55010;BME280;40903;51.638;7.528;2023-12-04T06:22:12;100610.56;;;1.47;92.51
55010;BME280;40903;51.638;7.528;2023-12-04T06:24:37;100619.44;;;1.47;92.04
55010;BME280;40903;51.638;7.528;2023-12-04T06:27:03;100610.31;;;1.48;93.30
55010;BME280;40903;51.638;7.528;2023-12-04T06:29:30;100617.34;;;1.49;93.22
55010;BME280;40903;51.638;7.528;2023-12-04T06:31:56;100613.22;;;1.47;93.18
55010;BME280;40903;51.638;7.528;2023-12-04T06:34:22;100612.44;;;1.46;91.62
55010;BME280;40903;51.638;7.528;2023-12-04T06:36:48;100604.13;;;1.48;92.45
55010;BME280;40903;51.638;7.528;2023-12-04T06:39:16;100603.69;;;1.51;93.62
55010;BME280;40903;51.638;7.528;2023-12-04T06:41:42;100599.09;;;1.51;95.12
55010;BME280;40903;51.638;7.528;2023-12-04T06:44:08;100593.50;;;1.53;95.57
55010;BME280;40903;51.638;7.528;2023-12-04T06:46:37;100597.25;;;1.52;95.82
55010;BME280;40903;51.638;7.528;2023-12-04T06:49:04;100599.09;;;1.51;96.53
55010;BME280;40903;51.638;7.528;2023-12-04T06:51:32;100595.84;;;1.49;97.39
55010;BME280;40903;51.638;7.528;2023-12-04T06:53:58;100585.09;;;1.49;98.19
55010;BME280;40903;51.638;7.528;2023-12-04T06:56:23;100579.16;;;1.47;99.34
55010;BME280;40903;51.638;7.528;2023-12-04T06:58:49;100581.56;;;1.49;99.62
55010;BME280;40903;51.638;7.528;2023-12-04T07:01:14;100578.88;;;1.49;100.00
55010;BME280;40903;51.638;7.528;2023-12-04T07:03:40;100561.13;;;1.48;100.00
55010;BME280;40903;51.638;7.528;2023-12-04T07:06:06;100557.88;;;1.46;100.00
55010;BME280;40903;51.638;7.528;2023-12-04T07:08:32;100554.38;;;1.45;100.00
55010;BME280;40903;51.638;7.528;2023-12-04T07:10:57;100560.47;;;1.41;100.00
55010;BME280;40903;51.638;7.528;2023-12-04T07:13:23;100556.38;;;1.38;100.00
55010;BME280;40903;51.638;7.528;2023-12-04T07:15:48;100555.78;;;1.36;100.00
55010;BME280;40903;51.638;7.528;2023-12-04T07:18:14;100551.47;;;1.35;100.00
55010;BME280;40903;51.638;7.528;2023-12-04T07:20:39;100547.72;;;1.36;100.00
55010;BME280;40903;51.638;7.528;2023-12-04T07:23:05;100538.25;;;1.34;100.00
55010;BME280;40903;51.638;7.528;2023-12-04T07:25:30;100537.47;;;1.33;100.00
55010;BME280;40903;51.638;7.528;2023-12-04T07:27:59;100539.31;;;1.33;100.00
55010;BME280;40903;51.638;7.528;2023-12-04T07:30:25;100539.09;;;1.34;100.00
55010;BME280;40903;51.638;7.528;2023-12-04T07:32:51;100535.13;;;1.37;100.00
55010;BME280;40903;51.638;7.528;2023-12-04T07:35:17;100534.06;;;1.38;100.00
55010;BME280;40903;51.638;7.528;2023-12-04T07:37:43;100529.16;;;1.35;100.00
55010;BME280;40903;51.638;7.528;2023-12-04T07:40:09;100522.97;;;1.34;100.00
55010;BME280;40903;51.638;7.528;2023-12-04T07:42:36;100524.25;;;1.32;100.00
55010;BME280;40903;51.638;7.528;2023-12-04T07:45:02;100522.16;;;1.34;100.00
55010;BME280;40903;51.638;7.528;2023-12-04T07:47:28;100515.16;;;1.33;100.00
55010;BME280;40903;51.638;7.528;2023-12-04T07:49:53;100515.41;;;1.31;100.00
55010;BME280;40903;51.638;7.528;2023-12-04T07:52:19;100504.41;;;1.33;100.00
55010;BME280;40903;51.638;7.528;2023-12-04T07:54:44;100500.66;;;1.34;99.63
55010;BME280;40903;51.638;7.528;2023-12-04T07:57:10;100507.44;;;1.36;95.56
55010;BME280;40903;51.638;7.528;2023-12-04T07:59:35;100501.38;;;1.41;94.10
55010;BME280;40903;51.638;7.528;2023-12-04T08:02:01;100507.66;;;1.46;93.85
55010;BME280;40903;51.638;7.528;2023-12-04T08:04:26;100504.03;;;1.52;94.25
55010;BME280;40903;51.638;7.528;2023-12-04T08:06:53;100503.53;;;1.55;94.42
55010;BME280;40903;51.638;7.528;2023-12-04T08:09:18;100498.53;;;1.59;95.28
55010;BME280;40903;51.638;7.528;2023-12-04T08:11:44;100507.41;;;1.59;94.62
55010;BME280;40903;51.638;7.528;2023-12-04T08:14:09;100516.84;;;1.62;85.50
55010;BME280;40903;51.638;7.528;2023-12-04T08:16:35;100508.09;;;1.66;86.75
55010;BME280;40903;51.638;7.528;2023-12-04T08:19:00;100499.31;;;1.71;87.10
55010;BME280;40903;51.638;7.528;2023-12-04T08:21:27;100493.22;;;1.75;87.14
55010;BME280;40903;51.638;7.528;2023-12-04T08:23:52;100498.69;;;1.80;87.87
55010;BME280;40903;51.638;7.528;2023-12-04T08:26:25;100492.63;;;1.85;88.49
55010;BME280;40903;51.638;7.528;2023-12-04T08:28:51;100486.75;;;1.88;90.09
55010;BME280;40903;51.638;7.528;2023-12-04T08:31:17;100474.72;;;1.90;93.08
55010;BME280;40903;51.638;7.528;2023-12-04T08:33:42;100476.84;;;1.88;95.14
55010;BME280;40903;51.638;7.528;2023-12-04T08:36:09;100473.09;;;1.89;94.92
55010;BME280;40903;51.638;7.528;2023-12-04T08:38:35;100470.13;;;1.90;94.83
55010;BME280;40903;51.638;7.528;2023-12-04T08:41:03;100467.72;;;1.89;95.38
55010;BME280;40903;51.638;7.528;2023-12-04T08:43:29;100473.09;;;1.89;95.81
55010;BME280;40903;51.638;7.528;2023-12-04T08:45:55;100460.22;;;1.91;97.25
55010;BME280;40903;51.638;7.528;2023-12-04T08:48:20;100461.84;;;1.92;97.95
55010;BME280;40903;51.638;7.528;2023-12-04T08:50:47;100454.13;;;1.95;99.11
55010;BME280;40903;51.638;7.528;2023-12-04T08:53:13;100457.13;;;1.99;98.85
55010;BME280;40903;51.638;7.528;2023-12-04T08:55:39;100455.28;;;1.99;99.30
55010;BME280;40903;51.638;7.528;2023-12-04T08:58:05;100466.81;;;2.00;97.88
55010;BME280;40903;51.638;7.528;2023-12-04T09:00:32;100467.88;;;1.99;96.92
55010;BME280;40903;51.638;7.528;2023-12-04T09:02:57;100478.91;;;1.97;94.02
55010;BME280;40903;51.638;7.528;2023-12-04T09:05:23;100476.66;;;1.94;93.18
55010;BME280;40903;51.638;7.528;2023-12-04T09:07:48;100477.84;;;1.98;94.11
55010;BME280;40903;51.638;7.528;2023-12-04T09:10:14;100473.38;;;2.04;94.61
55010;BME280;40903;51.638;7.528;2023-12-04T09:12:40;100469.38;;;2.06;93.14
55010;BME280;40903;51.638;7.528;2023-12-04T09:15:06;100465.63;;;2.07;91.75
55010;BME280;40903;51.638;7.528;2023-12-04T09:17:32;100465.38;;;2.09;90.09
55010;BME280;40903;51.638;7.528;2023-12-04T09:19:58;100467.84;;;2.10;84.78
55010;BME280;40903;51.638;7.528;2023-12-04T09:22:24;100465.47;;;2.14;84.72
55010;BME280;40903;51.638;7.528;2023-12-04T09:24:49;100465.25;;;2.15;83.43
55010;BME280;40903;51.638;7.528;2023-12-04T09:27:15;100469.91;;;2.20;82.80
55010;BME280;40903;51.638;7.528;2023-12-04T09:29:42;100459.72;;;2.22;82.82
55010;BME280;40903;51.638;7.528;2023-12-04T09:32:08;100450.91;;;2.26;83.59
55010;BME280;40903;51.638;7.528;2023-12-04T09:34:34;100462.56;;;2.32;83.09
55010;BME280;40903;51.638;7.528;2023-12-04T09:36:59;100453.47;;;2.33;82.15
55010;BME280;40903;51.638;7.528;2023-12-04T09:39:25;100444.63;;;2.37;82.02
55010;BME280;40903;51.638;7.528;2023-12-04T09:41:51;100446.88;;;2.40;83.75
55010;BME280;40903;51.638;7.528;2023-12-04T09:44:17;100443.34;;;2.40;83.54
55010;BME280;40903;51.638;7.528;2023-12-04T09:46:43;100441.72;;;2.39;80.47
55010;BME280;40903;51.638;7.528;2023-12-04T09:49:10;100438.78;;;2.40;80.96
55010;BME280;40903;51.638;7.528;2023-12-04T09:51:37;100445.03;;;2.46;78.06
55010;BME280;40903;51.638;7.528;2023-12-04T09:54:03;100434.88;;;2.48;81.02
55010;BME280;40903;51.638;7.528;2023-12-04T09:56:30;100423.63;;;2.51;82.12
55010;BME280;40903;51.638;7.528;2023-12-04T09:58:58;100427.44;;;2.55;83.13
55010;BME280;40903;51.638;7.528;2023-12-04T10:01:27;100413.50;;;2.58;85.50
55010;BME280;40903;51.638;7.528;2023-12-04T10:03:53;100412.44;;;2.59;85.54
55010;BME280;40903;51.638;7.528;2023-12-04T10:06:19;100397.91;;;2.60;85.10
55010;BME280;40903;51.638;7.528;2023-12-04T10:08:45;100394.72;;;2.63;86.00
55010;BME280;40903;51.638;7.528;2023-12-04T10:11:13;100391.22;;;2.62;86.81
55010;BME280;40903;51.638;7.528;2023-12-04T10:13:40;100388.53;;;2.62;86.75
55010;BME280;40903;51.638;7.528;2023-12-04T10:16:06;100384.16;;;2.56;86.29
55010;BME280;40903;51.638;7.528;2023-12-04T10:18:33;100377.94;;;2.56;86.96
55010;BME280;40903;51.638;7.528;2023-12-04T10:20:59;100376.09;;;2.56;87.51
55010;BME280;40903;51.638;7.528;2023-12-04T10:23:42;100364.81;;;2.59;88.68
55010;BME280;40903;51.638;7.528;2023-12-04T10:26:08;100357.81;;;2.58;88.95
55010;BME280;40903;51.638;7.528;2023-12-04T10:28:34;100364.16;;;2.52;87.94
55010;BME280;40903;51.638;7.528;2023-12-04T10:31:00;100358.22;;;2.50;87.58
55010;BME280;40903;51.638;7.528;2023-12-04T10:33:26;100356.34;;;2.51;87.67
55010;BME280;40903;51.638;7.528;2023-12-04T10:35:54;100352.09;;;2.55;88.01
55010;BME280;40903;51.638;7.528;2023-12-04T10:38:21;100347.53;;;2.55;87.35
55010;BME280;40903;51.638;7.528;2023-12-04T10:40:46;100340.78;;;2.53;88.16
55010;BME280;40903;51.638;7.528;2023-12-04T10:43:18;100330.50;;;2.50;88.21
55010;BME280;40903;51.638;7.528;2023-12-04T10:45:46;100326.25;;;2.54;89.22
55010;BME280;40903;51.638;7.528;2023-12-04T10:48:13;100339.16;;;2.52;86.66
55010;BME280;40903;51.638;7.528;2023-12-04T10:50:41;100334.38;;;2.59;88.32
55010;BME280;40903;51.638;7.528;2023-12-04T10:53:11;100332.25;;;2.61;87.17
55010;BME280;40903;51.638;7.528;2023-12-04T10:55:38;100318.81;;;2.61;89.21
55010;BME280;40903;51.638;7.528;2023-12-04T10:58:09;100321.50;;;2.61;85.35
55010;BME280;40903;51.638;7.528;2023-12-04T11:00:38;100315.13;;;2.67;87.06
55010;BME280;40903;51.638;7.528;2023-12-04T11:03:08;100309.25;;;2.70;87.40
55010;BME280;40903;51.638;7.528;2023-12-04T11:05:40;100309.56;;;2.73;86.54
55010;BME280;40903;51.638;7.528;2023-12-04T11:08:11;100303.63;;;2.71;89.01
55010;BME280;40903;51.638;7.528;2023-12-04T11:11:03;100315.13;;;2.67;87.02
55010;BME280;40903;51.638;7.528;2023-12-04T11:13:30;100296.03;;;2.68;87.02
55010;BME280;40903;51.638;7.528;2023-12-04T11:16:04;100300.44;;;2.74;87.23
55010;BME280;40903;51.638;7.528;2023-12-04T11:18:36;100298.31;;;2.76;86.87
55010;BME280;40903;51.638;7.528;2023-12-04T11:21:07;100284.91;;;2.81;88.12
55010;BME280;40903;51.638;7.528;2023-12-04T11:23:34;100290.56;;;2.80;86.74
55010;BME280;40903;51.638;7.528;2023-12-04T11:26:00;100287.34;;;2.83;86.03
55010;BME280;40903;51.638;7.528;2023-12-04T11:28:27;100279.84;;;2.85;86.73
55010;BME280;40903;51.638;7.528;2023-12-04T11:30:53;100263.34;;;2.81;89.27
55010;BME280;40903;51.638;7.528;2023-12-04T11:33:20;100268.75;;;2.81;89.58
55010;BME280;40903;51.638;7.528;2023-12-04T11:35:45;100271.72;;;2.80;89.12
55010;BME280;40903;51.638;7.528;2023-12-04T11:38:14;100260.94;;;2.80;89.15
55010;BME280;40903;51.638;7.528;2023-12-04T11:40:41;100264.75;;;2.84;89.71
55010;BME280;40903;51.638;7.528;2023-12-04T11:43:27;100268.25;;;2.84;89.97
55010;BME280;40903;51.638;7.528;2023-12-04T11:45:53;100270.38;;;2.82;89.22
55010;BME280;40903;51.638;7.528;2023-12-04T11:48:27;100263.69;;;2.85;89.06
55010;BME280;40903;51.638;7.528;2023-12-04T11:50:56;100273.69;;;2.89;87.48
55010;BME280;40903;51.638;7.528;2023-12-04T11:53:22;100271.06;;;2.94;87.55
55010;BME280;40903;51.638;7.528;2023-12-04T11:55:48;100260.84;;;2.96;86.93
55010;BME280;40903;51.638;7.528;2023-12-04T11:58:16;100264.94;;;2.99;88.68
55010;BME280;40903;51.638;7.528;2023-12-04T12:00:42;100254.41;;;2.97;90.89
55010;BME280;40903;51.638;7.528;2023-12-04T12:03:08;100259.53;;;2.99;87.68
55010;BME280;40903;51.638;7.528;2023-12-04T12:05:37;100254.19;;;3.04;89.02
55010;BME280;40903;51.638;7.528;2023-12-04T12:08:07;100245.13;;;3.10;89.05
55010;BME280;40903;51.638;7.528;2023-12-04T12:10:33;100236.97;;;3.05;87.96
55010;BME280;40903;51.638;7.528;2023-12-04T12:12:59;100237.53;;;3.07;89.51
55010;BME280;40903;51.638;7.528;2023-12-04T12:15:25;100242.38;;;3.05;87.54
55010;BME280;40903;51.638;7.528;2023-12-04T12:17:51;100239.66;;;3.05;87.31
55010;BME280;40903;51.638;7.528;2023-12-04T12:20:17;100233.78;;;3.08;88.77
55010;BME280;40903;51.638;7.528;2023-12-04T12:22:44;100237.81;;;3.05;87.46
55010;BME280;40903;51.638;7.528;2023-12-04T12:25:12;100233.22;;;3.06;88.76
55010;BME280;40903;51.638;7.528;2023-12-04T12:27:39;100238.13;;;3.09;89.53
55010;BME280;40903;51.638;7.528;2023-12-04T12:30:05;100243.75;;;3.07;88.28
55010;BME280;40903;51.638;7.528;2023-12-04T12:32:32;100235.91;;;3.06;88.95
55010;BME280;40903;51.638;7.528;2023-12-04T12:34:58;100243.22;;;3.10;88.02
55010;BME280;40903;51.638;7.528;2023-12-04T12:37:23;100239.75;;;3.10;87.08
55010;BME280;40903;51.638;7.528;2023-12-04T12:39:49;100229.78;;;3.10;89.82
55010;BME280;40903;51.638;7.528;2023-12-04T12:42:26;100227.63;;;3.12;91.61
55010;BME280;40903;51.638;7.528;2023-12-04T12:44:52;100214.72;;;3.14;91.32
55010;BME280;40903;51.638;7.528;2023-12-04T12:47:18;100206.41;;;3.16;91.98
55010;BME280;40903;51.638;7.528;2023-12-04T12:49:44;100203.75;;;3.21;92.23